Terminal Aerodrome Forecast
Issued by NWS

Home | Current Version | Previous Version | Text Only | Print | Product List | Glossary On
Versions: 1 2 3 4 5 6 7 8 9 10 11 12 13 14
542
FTPA31 PHFO 211120
TAFHTO
TAF
PHTO 211120Z 2112/2212 24007KT P6SM SCT030 BKN070
     FM212000 03012KT P6SM FEW030 BKN060
     FM220500 35008KT P6SM SCT030 BKN060=

USA.gov is the U.S. government's official web portal to all federal, state and local government web resources and services.